createdAt,value
2022-11-10T00:04:35.171Z,315.02792
2022-11-10T00:19:37.745Z,124.07254
2022-11-10T00:34:40.215Z,20.35565
2022-11-10T00:49:42.497Z,1.93863
2022-11-10T01:04:44.826Z,0.96932
2022-11-10T01:19:47.279Z,0.96932
2022-11-10T01:34:49.730Z,0.96932
2022-11-10T01:49:52.045Z,0.96932
2022-11-10T02:04:54.343Z,0.96932
2022-11-10T02:19:56.694Z,0.96932
2022-11-10T02:34:58.939Z,0.96932
2022-11-10T02:50:01.522Z,0.96932
2022-11-10T03:05:03.709Z,0.96932
2022-11-10T03:20:06.163Z,0.96932
2022-11-10T03:35:08.627Z,0.96932
2022-11-10T03:50:11.052Z,0.96932
2022-11-10T04:05:13.600Z,0.96932
2022-11-10T04:20:15.812Z,0.96932
2022-11-10T04:35:18.040Z,0.96932
2022-11-10T04:50:20.291Z,0.96932
2022-11-10T05:05:22.750Z,0.96932
2022-11-10T05:20:25.134Z,0.96932
2022-11-10T05:35:27.372Z,0.96932
2022-11-10T05:50:29.679Z,0.96932
2022-11-10T06:05:32.029Z,0.96932
2022-11-10T06:20:34.527Z,0.96932
2022-11-10T06:35:36.840Z,0.96932
2022-11-10T06:50:39.098Z,0.96932
2022-11-10T07:05:41.340Z,0.96932
2022-11-10T07:20:43.578Z,0.96932
2022-11-10T07:35:45.816Z,0.96932
2022-11-10T07:50:48.257Z,0.96932
2022-11-10T08:05:50.776Z,0.96932
2022-11-10T08:20:53.744Z,0.96932
2022-11-10T08:35:56.002Z,0.96932
2022-11-10T08:50:58.253Z,0.96932
2022-11-10T09:06:01.164Z,0.96932
2022-11-10T09:21:03.703Z,0.96932
2022-11-10T09:36:05.883Z,0.96932
2022-11-10T09:51:08.292Z,0.96932
2022-11-10T10:06:10.559Z,0.96932
2022-11-10T10:21:12.909Z,0.96932
2022-11-10T10:36:15.229Z,0.96932
2022-11-10T10:51:17.739Z,0.96932
2022-11-10T11:06:19.973Z,0.96932
2022-11-10T11:21:22.226Z,0.96932
2022-11-10T11:36:24.544Z,0.96932
2022-11-10T11:51:26.775Z,0.96932
2022-11-10T12:06:29.025Z,0.96932
2022-11-10T12:21:31.319Z,0.96932
2022-11-10T12:36:33.521Z,0.96932
2022-11-10T12:51:35.733Z,0.96932
2022-11-10T13:06:38.084Z,0.96932
2022-11-10T13:21:40.391Z,0.96932
2022-11-10T13:36:42.618Z,0.96932
2022-11-10T13:51:45.007Z,0.96932
2022-11-10T14:06:47.314Z,0.96932
2022-11-10T14:21:53.957Z,0.96932
2022-11-10T14:36:57.737Z,5.8159
2022-11-10T14:51:59.935Z,39.74199
2022-11-10T15:07:02.484Z,97.90099
2022-11-10T15:22:04.728Z,218.09627
2022-11-10T15:37:07.189Z,407.11304
2022-11-10T15:52:09.417Z,653.31946
2022-11-10T16:07:12.119Z,966.40875
2022-11-10T16:22:14.462Z,1302.76172
2022-11-10T16:37:16.726Z,1424.89563
2022-11-10T16:52:18.954Z,1724.41443
2022-11-10T17:07:21.293Z,2270.13965
2022-11-10T17:22:23.609Z,2857.54565
2022-11-10T17:37:25.815Z,3520.55835
2022-11-10T17:52:28.066Z,4159.33789
2022-11-10T18:07:30.290Z,5033.66162
2022-11-10T18:22:32.531Z,6556.4585
2022-11-10T18:37:38.752Z,6838.5293
2022-11-10T18:52:41.541Z,6839.49902
2022-11-10T19:07:43.823Z,7203.96191
2022-11-10T19:22:46.114Z,6704.76367
2022-11-10T19:37:48.584Z,7240.7959
2022-11-10T19:52:50.816Z,13177.86035
2022-11-10T20:07:53.160Z,13254.43652
2022-11-10T20:22:55.589Z,12518.72559
2022-11-10T20:37:57.908Z,11594.9668
2022-11-10T20:53:00.218Z,10120.63574
2022-11-10T21:08:03.109Z,10146.80762
2022-11-10T21:23:05.535Z,9631.13086
2022-11-10T21:38:07.789Z,7685.7124
2022-11-10T21:53:10.232Z,6104.75684
2022-11-10T22:08:12.501Z,4961.93213
2022-11-10T22:23:14.761Z,3317.00171
2022-11-10T22:38:17.047Z,1745.73938
2022-11-10T22:53:19.456Z,1440.40466
2022-11-10T23:08:21.759Z,1217.46179
2022-11-10T23:23:24.986Z,977.07123
2022-11-10T23:38:27.874Z,730.86481
2022-11-10T23:53:30.402Z,519.55377
